La Pointe, Wisconsin
Current Conditions -  °F | °C
As of 5:53 PM on Friday 28 Nov 2014 (Local Time) from KASX Reporting Station
Overcast Overcast  
Wind Chill: 18°   Ceiling: 5500
Heat Index: 18°   Visibility: 10mi
Dew Point: 12°   Wind: 0mph
Humidity: 78%   Direction: NA
Pressure: 29.93"   Gusts: NA
Location:  46.78°N, 90.79°W
Report Text: KASX 282353Z AUTO 00000KT 10SM FEW044 OVC055 M08/M11 A2993 RMK AO2 SLP154 T10781111 11078 21106 55004
Loading
Personal Weather Stations






























Interactive Weather Map New forecast layout! Learn more

10-Day Weather Forecast

Advertisements
Track Severe Weather on mobile